createdAt,value
2022-08-31T00:01:04.336Z,84.50
2022-08-31T00:03:50.703Z,84.60
2022-08-31T00:06:19.755Z,84.70
2022-08-31T00:08:48.869Z,84.60
2022-08-31T00:11:20.304Z,84.60
2022-08-31T00:13:49.121Z,84.60
2022-08-31T00:16:19.630Z,84.50
2022-08-31T00:18:52.725Z,84.30
2022-08-31T00:21:23.859Z,84.50
2022-08-31T00:23:53.459Z,84.70
2022-08-31T00:26:24.126Z,84.80
2022-08-31T00:28:53.911Z,84.80
2022-08-31T00:31:24.997Z,84.80
2022-08-31T00:33:54.136Z,84.80
2022-08-31T00:36:25.025Z,84.80
2022-08-31T00:38:55.206Z,84.90
2022-08-31T00:41:27.923Z,85.00
2022-08-31T00:43:58.988Z,85.10
2022-08-31T00:46:32.094Z,85.20
2022-08-31T00:49:04.741Z,85.20
2022-08-31T00:51:37.576Z,85.20
2022-08-31T00:54:08.972Z,85.30
2022-08-31T00:56:38.170Z,85.30
2022-08-31T00:59:07.372Z,85.50
2022-08-31T01:01:37.833Z,85.20
2022-08-31T01:04:07.408Z,85.10
2022-08-31T01:06:37.190Z,85.10
2022-08-31T01:09:08.331Z,85.20
2022-08-31T01:11:39.879Z,85.30
2022-08-31T01:14:09.771Z,85.40
2022-08-31T01:16:44.151Z,85.40
2022-08-31T01:19:22.359Z,85.50
2022-08-31T01:22:00.804Z,85.30
2022-08-31T01:24:33.992Z,85.10
2022-08-31T01:27:07.824Z,85.00
2022-08-31T01:29:37.501Z,85.00
2022-08-31T01:32:08.475Z,85.00
2022-08-31T01:34:37.767Z,85.00
2022-08-31T01:37:06.906Z,85.00
2022-08-31T01:39:37.401Z,85.00
2022-08-31T01:42:06.994Z,85.00
2022-08-31T01:44:36.346Z,85.00
2022-08-31T01:47:05.684Z,85.00
2022-08-31T01:49:37.317Z,84.90
2022-08-31T01:52:06.950Z,85.00
2022-08-31T01:54:37.684Z,85.00
2022-08-31T01:57:07.275Z,84.90
2022-08-31T02:00:00.997Z,84.90
2022-08-31T02:02:50.484Z,84.70
2022-08-31T02:05:20.328Z,84.80
2022-08-31T02:07:49.392Z,84.80
2022-08-31T02:10:19.948Z,84.90
2022-08-31T02:12:49.209Z,85.00
2022-08-31T02:15:18.452Z,85.10
2022-08-31T02:17:52.721Z,85.20
2022-08-31T02:20:22.288Z,85.30
2022-08-31T02:22:52.394Z,85.30
2022-08-31T02:25:23.213Z,85.40
2022-08-31T02:27:52.767Z,85.50
2022-08-31T02:30:22.137Z,85.50
2022-08-31T02:32:53.027Z,85.50
2022-08-31T02:35:22.225Z,85.50
2022-08-31T02:37:51.853Z,85.30
2022-08-31T02:40:22.509Z,85.30
2022-08-31T02:42:53.302Z,85.40
2022-08-31T02:45:26.556Z,85.30
2022-08-31T02:48:01.463Z,85.30
2022-08-31T02:50:40.317Z,85.10
2022-08-31T02:53:10.128Z,85.10
2022-08-31T02:55:43.065Z,85.10
2022-08-31T02:58:13.654Z,85.10
2022-08-31T03:00:47.305Z,85.10
2022-08-31T03:03:18.247Z,85.10
2022-08-31T03:05:47.685Z,84.90
2022-08-31T03:08:16.747Z,84.90
2022-08-31T03:10:48.481Z,84.80
2022-08-31T03:13:17.814Z,84.80
2022-08-31T03:15:46.929Z,84.90
2022-08-31T03:18:18.428Z,84.90
2022-08-31T03:20:47.472Z,84.90
2022-08-31T03:23:16.742Z,85.00
2022-08-31T03:25:47.296Z,85.00
2022-08-31T03:28:16.790Z,85.00
2022-08-31T03:30:59.874Z,84.90
2022-08-31T03:33:29.638Z,84.70
2022-08-31T03:35:59.321Z,84.50
2022-08-31T03:38:28.350Z,84.40
2022-08-31T03:40:58.969Z,84.40
2022-08-31T03:43:28.328Z,84.20
2022-08-31T03:45:58.040Z,84.10
2022-08-31T03:48:27.134Z,83.80
2022-08-31T03:50:56.618Z,83.70
2022-08-31T03:53:30.941Z,83.60
2022-08-31T03:56:04.064Z,83.60
2022-08-31T03:58:36.155Z,83.50
2022-08-31T04:01:06.150Z,83.50
2022-08-31T04:03:58.178Z,83.50
2022-08-31T04:06:53.202Z,83.60
2022-08-31T04:09:40.941Z,83.70
2022-08-31T04:12:43.435Z,83.80
2022-08-31T04:15:32.447Z,83.80
2022-08-31T04:18:37.136Z,83.80
2022-08-31T04:21:11.795Z,83.90
2022-08-31T04:23:40.942Z,84.10
2022-08-31T04:26:20.373Z,84.40
2022-08-31T04:28:51.781Z,84.50
2022-08-31T04:31:22.527Z,84.50
2022-08-31T04:33:52.487Z,84.60
2022-08-31T04:36:23.733Z,84.80
2022-08-31T04:38:59.343Z,85.00
2022-08-31T04:41:30.855Z,84.90
2022-08-31T04:44:02.497Z,84.90
2022-08-31T04:46:33.490Z,84.80
2022-08-31T04:49:02.685Z,84.60
2022-08-31T04:51:35.553Z,84.50
2022-08-31T04:54:07.128Z,84.30
2022-08-31T04:56:39.427Z,84.10
2022-08-31T04:59:11.742Z,84.00
2022-08-31T05:01:51.196Z,84.00
2022-08-31T05:04:41.196Z,83.90
2022-08-31T05:07:10.296Z,83.80
2022-08-31T05:09:39.398Z,83.80
2022-08-31T05:12:09.642Z,83.70
2022-08-31T05:14:40.670Z,83.70
2022-08-31T05:17:20.310Z,83.70
2022-08-31T05:19:49.490Z,83.70
2022-08-31T05:22:18.840Z,83.80
2022-08-31T05:24:49.629Z,83.80
2022-08-31T05:27:18.729Z,84.00
2022-08-31T05:29:49.164Z,84.10
2022-08-31T05:32:38.444Z,84.10
2022-08-31T05:35:09.377Z,84.30
2022-08-31T05:37:39.016Z,84.20
2022-08-31T05:40:10.660Z,84.20
2022-08-31T05:42:39.754Z,84.20
2022-08-31T05:45:11.210Z,84.20
2022-08-31T05:47:42.412Z,84.10
2022-08-31T05:50:12.188Z,84.00
2022-08-31T05:52:44.164Z,83.70
2022-08-31T05:55:13.377Z,83.50
2022-08-31T05:57:43.164Z,83.30
2022-08-31T06:00:14.421Z,83.20
2022-08-31T06:02:51.110Z,83.00
2022-08-31T06:05:22.786Z,82.90
2022-08-31T06:07:53.005Z,83.60
2022-08-31T06:10:22.524Z,82.50
2022-08-31T06:12:52.219Z,82.30
2022-08-31T06:15:23.037Z,82.10
2022-08-31T06:17:52.772Z,82.00
2022-08-31T06:20:21.954Z,81.90
2022-08-31T06:22:51.083Z,81.70
2022-08-31T06:25:40.123Z,81.50
2022-08-31T06:28:14.388Z,81.40
2022-08-31T06:30:54.814Z,81.20
2022-08-31T06:33:24.832Z,81.00
2022-08-31T06:36:12.297Z,80.90
2022-08-31T06:38:56.547Z,80.60
2022-08-31T06:41:41.594Z,80.40
2022-08-31T06:44:33.516Z,80.10
2022-08-31T06:47:11.944Z,79.80
2022-08-31T06:49:42.911Z,79.30
2022-08-31T06:52:12.009Z,78.50
2022-08-31T06:54:43.577Z,78.20
2022-08-31T06:57:31.881Z,77.60
2022-08-31T07:00:19.791Z,76.90
2022-08-31T07:03:23.102Z,76.40
2022-08-31T07:05:54.300Z,75.90
2022-08-31T07:08:23.876Z,75.30
2022-08-31T07:10:53.945Z,74.90
2022-08-31T07:13:25.581Z,74.50
2022-08-31T07:16:05.050Z,74.00
2022-08-31T07:18:36.181Z,73.40
2022-08-31T07:21:11.032Z,73.50
2022-08-31T07:23:41.052Z,73.10
2022-08-31T07:26:25.726Z,72.70
2022-08-31T07:28:56.412Z,72.30
2022-08-31T07:31:27.676Z,71.60
2022-08-31T07:33:58.921Z,71.10
2022-08-31T07:36:29.517Z,70.60
2022-08-31T07:39:21.991Z,70.00
2022-08-31T07:42:08.597Z,69.50
2022-08-31T07:44:38.087Z,69.70
2022-08-31T07:47:12.116Z,69.90
2022-08-31T07:49:48.373Z,69.70
2022-08-31T07:52:34.119Z,69.70
2022-08-31T07:55:12.494Z,69.40
2022-08-31T07:57:55.880Z,69.70
2022-08-31T08:00:27.543Z,70.50
2022-08-31T08:03:07.495Z,69.40
2022-08-31T08:05:58.351Z,69.30
2022-08-31T08:08:43.851Z,69.20
2022-08-31T08:11:23.465Z,69.00
2022-08-31T08:14:12.194Z,68.60
2022-08-31T08:16:56.583Z,68.40
2022-08-31T08:19:38.286Z,68.30
2022-08-31T08:22:09.359Z,68.20
2022-08-31T08:25:12.201Z,68.20
2022-08-31T08:27:57.175Z,68.10
2022-08-31T08:30:32.808Z,67.90
2022-08-31T08:33:04.132Z,67.70
2022-08-31T08:35:36.553Z,67.60
2022-08-31T08:38:07.974Z,67.30
2022-08-31T08:40:42.704Z,67.50
2022-08-31T08:43:16.299Z,67.60
2022-08-31T08:45:51.696Z,67.30
2022-08-31T08:48:28.162Z,66.90
2022-08-31T08:50:57.373Z,66.90
2022-08-31T08:53:38.806Z,67.00
2022-08-31T08:56:47.221Z,67.20
2022-08-31T08:59:20.579Z,67.10
2022-08-31T09:01:56.468Z,67.00
2022-08-31T09:04:46.558Z,67.30
2022-08-31T09:07:59.180Z,67.60
2022-08-31T09:10:35.693Z,67.60
2022-08-31T09:13:19.439Z,67.30
2022-08-31T09:16:06.017Z,67.50
2022-08-31T09:18:46.595Z,67.50
2022-08-31T09:21:22.341Z,67.40
2022-08-31T09:24:04.340Z,67.20
2022-08-31T09:27:02.206Z,67.10
2022-08-31T09:29:45.171Z,67.20
2022-08-31T09:32:24.842Z,67.00
2022-08-31T09:35:01.817Z,67.40
2022-08-31T09:37:38.255Z,67.50
2022-08-31T09:40:23.232Z,67.50
2022-08-31T09:43:07.489Z,67.50
2022-08-31T09:45:42.383Z,67.50
2022-08-31T09:48:11.806Z,67.60
2022-08-31T09:50:45.273Z,67.60
2022-08-31T09:53:38.464Z,67.10
2022-08-31T09:56:14.228Z,66.60
2022-08-31T09:58:48.659Z,66.70
2022-08-31T10:01:25.893Z,66.80
2022-08-31T10:04:17.260Z,66.50
2022-08-31T10:06:52.444Z,66.30
2022-08-31T10:09:28.249Z,65.70
2022-08-31T10:12:04.360Z,65.40
2022-08-31T10:14:41.797Z,65.10
2022-08-31T10:17:17.791Z,64.20
2022-08-31T10:19:54.217Z,63.70
2022-08-31T10:22:30.191Z,62.90
2022-08-31T10:25:12.154Z,62.40
2022-08-31T10:27:45.707Z,62.20
2022-08-31T10:30:29.046Z,62.70
2022-08-31T10:33:06.669Z,62.90
2022-08-31T10:35:45.340Z,63.00
2022-08-31T10:38:21.354Z,63.00
2022-08-31T10:40:56.059Z,62.90
2022-08-31T10:43:31.661Z,62.60
2022-08-31T10:46:03.681Z,62.80
2022-08-31T10:48:34.102Z,62.40
2022-08-31T10:51:18.190Z,62.00
2022-08-31T10:54:01.539Z,61.60
2022-08-31T10:56:37.448Z,61.80
2022-08-31T10:59:23.553Z,61.60
2022-08-31T11:02:01.458Z,61.70
2022-08-31T11:04:44.732Z,62.10
2022-08-31T11:07:33.600Z,62.70
2022-08-31T11:10:20.108Z,62.80
2022-08-31T11:12:55.132Z,63.30
2022-08-31T11:15:51.670Z,63.90
2022-08-31T11:18:54.796Z,63.80
2022-08-31T11:21:55.211Z,63.70
2022-08-31T11:24:43.147Z,63.20
2022-08-31T11:27:23.610Z,63.30
2022-08-31T11:29:58.327Z,63.60
2022-08-31T11:32:37.600Z,63.80
2022-08-31T11:35:10.783Z,63.70
2022-08-31T11:37:56.172Z,63.90
2022-08-31T11:41:11.248Z,64.10
2022-08-31T11:43:47.121Z,64.20
2022-08-31T11:46:43.166Z,64.50
2022-08-31T11:49:40.274Z,65.00
2022-08-31T11:52:29.673Z,65.60
2022-08-31T11:55:10.359Z,66.00
2022-08-31T11:58:21.974Z,66.50
2022-08-31T12:00:58.546Z,66.80
2022-08-31T12:04:03.675Z,67.00
2022-08-31T12:06:59.368Z,67.40
2022-08-31T12:10:02.538Z,67.60
2022-08-31T12:12:45.165Z,67.80
2022-08-31T12:15:20.960Z,68.10
2022-08-31T12:18:05.047Z,68.10
2022-08-31T12:21:07.391Z,68.30
2022-08-31T12:23:45.732Z,68.50
2022-08-31T12:26:45.143Z,68.30
2022-08-31T12:29:22.218Z,68.30
2022-08-31T12:32:26.906Z,68.50
2022-08-31T12:35:15.406Z,68.40
2022-08-31T12:37:44.988Z,67.80
2022-08-31T12:40:20.282Z,67.60
2022-08-31T12:42:57.698Z,67.40
2022-08-31T12:45:58.240Z,67.30
2022-08-31T12:48:49.062Z,66.60
2022-08-31T12:51:31.496Z,66.60
2022-08-31T12:54:17.329Z,66.60
2022-08-31T12:56:56.042Z,66.80
2022-08-31T12:59:57.304Z,67.00
2022-08-31T13:02:27.718Z,66.80
2022-08-31T13:04:56.898Z,66.90
2022-08-31T13:07:34.597Z,66.90
2022-08-31T13:10:08.305Z,66.80
2022-08-31T13:12:38.945Z,66.90
2022-08-31T13:15:23.146Z,67.00
2022-08-31T13:17:53.701Z,67.00
2022-08-31T13:20:26.640Z,67.10
2022-08-31T13:23:02.441Z,67.10
2022-08-31T13:25:35.915Z,66.80
2022-08-31T13:28:08.174Z,66.30
2022-08-31T13:30:40.019Z,65.50
2022-08-31T13:33:27.117Z,64.20
2022-08-31T13:36:03.904Z,62.90
2022-08-31T13:38:42.428Z,62.20
2022-08-31T13:41:18.865Z,61.90
2022-08-31T13:43:58.743Z,62.40
2022-08-31T13:46:42.276Z,63.00
2022-08-31T13:49:32.488Z,63.40
2022-08-31T13:52:02.908Z,64.30
2022-08-31T13:54:34.033Z,64.90
2022-08-31T13:57:19.738Z,65.60
2022-08-31T13:59:49.573Z,66.30
2022-08-31T14:02:37.368Z,66.70
2022-08-31T14:05:10.463Z,67.30
2022-08-31T14:08:02.240Z,67.70
2022-08-31T14:10:36.297Z,68.40
2022-08-31T14:13:14.351Z,68.60
2022-08-31T14:15:52.456Z,68.80
2022-08-31T14:18:27.555Z,68.90
2022-08-31T14:21:23.174Z,69.10
2022-08-31T14:23:59.061Z,69.10
2022-08-31T14:26:29.241Z,68.90
2022-08-31T14:29:00.677Z,68.70
2022-08-31T14:31:32.791Z,68.60
2022-08-31T14:34:22.408Z,68.70
2022-08-31T14:36:57.652Z,68.60
2022-08-31T14:39:30.920Z,68.50
2022-08-31T14:42:02.695Z,69.40
2022-08-31T14:44:34.045Z,68.60
2022-08-31T14:47:03.275Z,68.70
2022-08-31T14:49:36.248Z,69.00
2022-08-31T14:52:07.300Z,69.50
2022-08-31T14:54:37.879Z,69.90
2022-08-31T14:57:12.366Z,70.20
2022-08-31T14:59:44.802Z,70.50
2022-08-31T15:02:21.368Z,70.80
2022-08-31T15:04:52.377Z,70.90
2022-08-31T15:07:21.485Z,71.30
2022-08-31T15:09:50.484Z,71.70
2022-08-31T15:12:19.687Z,72.20
2022-08-31T15:14:49.855Z,72.40
2022-08-31T15:17:20.558Z,72.60
2022-08-31T15:19:55.221Z,72.60
2022-08-31T15:22:26.341Z,72.60
2022-08-31T15:24:55.817Z,72.70
2022-08-31T15:27:29.054Z,73.00
2022-08-31T15:30:07.796Z,72.60
2022-08-31T15:32:45.366Z,72.90
2022-08-31T15:35:19.105Z,73.20
2022-08-31T15:37:53.192Z,73.40
2022-08-31T15:40:22.534Z,74.50
2022-08-31T15:42:54.015Z,73.90
2022-08-31T15:45:23.403Z,73.90
2022-08-31T15:48:10.074Z,74.20
2022-08-31T15:50:51.148Z,74.10
2022-08-31T15:53:25.429Z,74.50
2022-08-31T15:55:54.946Z,74.70
2022-08-31T15:58:25.354Z,74.90
2022-08-31T16:00:54.586Z,75.00
2022-08-31T16:03:23.671Z,74.90
2022-08-31T16:05:56.016Z,75.00
2022-08-31T16:08:28.618Z,75.10
2022-08-31T16:10:57.724Z,75.30
2022-08-31T16:13:26.785Z,75.50
2022-08-31T16:15:55.867Z,75.70
2022-08-31T16:18:24.879Z,76.00
2022-08-31T16:20:56.299Z,76.20
2022-08-31T16:23:35.750Z,76.30
2022-08-31T16:26:06.326Z,76.40
2022-08-31T16:28:36.709Z,76.20
2022-08-31T16:31:07.997Z,76.30
2022-08-31T16:33:36.848Z,76.40
2022-08-31T16:36:07.999Z,76.50
2022-08-31T16:38:37.079Z,76.20
2022-08-31T16:41:07.322Z,76.40
2022-08-31T16:43:36.353Z,76.60
2022-08-31T16:46:24.239Z,76.80
2022-08-31T16:49:12.380Z,77.00
2022-08-31T16:51:45.603Z,77.30
2022-08-31T16:54:19.251Z,77.50
2022-08-31T16:56:52.014Z,77.80
2022-08-31T16:59:21.429Z,78.00
2022-08-31T17:01:50.665Z,78.20
2022-08-31T17:04:41.484Z,78.30
2022-08-31T17:07:14.759Z,78.50
2022-08-31T17:09:44.741Z,78.60
2022-08-31T17:12:16.588Z,78.70
2022-08-31T17:14:48.488Z,78.90
2022-08-31T17:17:20.436Z,78.90
2022-08-31T17:19:52.162Z,79.10
2022-08-31T17:22:32.546Z,79.00
2022-08-31T17:25:05.116Z,79.20
2022-08-31T17:27:36.441Z,79.10
2022-08-31T17:30:07.994Z,79.10
2022-08-31T17:32:44.387Z,79.10
2022-08-31T17:35:18.535Z,79.00
2022-08-31T17:37:50.041Z,79.10
2022-08-31T17:40:19.424Z,79.20
2022-08-31T17:42:50.140Z,79.40
2022-08-31T17:45:21.390Z,79.50
2022-08-31T17:47:51.066Z,79.60
2022-08-31T17:50:21.338Z,79.70
2022-08-31T17:52:51.846Z,79.80
2022-08-31T17:55:21.126Z,79.80
2022-08-31T17:57:50.177Z,79.90
2022-08-31T18:00:19.555Z,80.10
2022-08-31T18:02:49.886Z,80.30
2022-08-31T18:05:19.103Z,80.40
2022-08-31T18:07:50.111Z,80.70
2022-08-31T18:10:20.686Z,80.80
2022-08-31T18:12:49.905Z,80.90
2022-08-31T18:15:19.099Z,81.00
2022-08-31T18:17:48.702Z,81.00
2022-08-31T18:20:17.999Z,81.00
2022-08-31T18:22:52.077Z,81.10
2022-08-31T18:25:23.100Z,81.00
2022-08-31T18:27:52.181Z,81.00
2022-08-31T18:30:23.056Z,81.00
2022-08-31T18:32:52.867Z,81.10
2022-08-31T18:35:29.530Z,81.20
2022-08-31T18:37:59.867Z,81.30
2022-08-31T18:40:56.393Z,81.40
2022-08-31T18:43:43.341Z,81.50
2022-08-31T18:46:12.593Z,81.50
2022-08-31T18:48:51.123Z,81.50
2022-08-31T18:51:23.343Z,81.60
2022-08-31T18:53:52.663Z,81.60
2022-08-31T18:56:26.521Z,81.80
2022-08-31T18:58:58.321Z,82.00
2022-08-31T19:01:33.500Z,82.10
2022-08-31T19:04:03.171Z,82.20
2022-08-31T19:06:32.260Z,82.10
2022-08-31T19:09:02.040Z,82.20
2022-08-31T19:11:33.447Z,82.10
2022-08-31T19:14:02.784Z,82.10
2022-08-31T19:16:32.579Z,82.10
2022-08-31T19:19:01.835Z,82.10
2022-08-31T19:21:33.525Z,82.10
2022-08-31T19:24:06.068Z,82.20
2022-08-31T19:26:40.297Z,82.10
2022-08-31T19:29:14.315Z,82.20
2022-08-31T19:31:46.179Z,82.30
2022-08-31T19:34:18.801Z,82.40
2022-08-31T19:36:51.460Z,82.30
2022-08-31T19:39:25.883Z,82.40
2022-08-31T19:41:58.178Z,82.40
2022-08-31T19:44:28.317Z,82.40
2022-08-31T19:46:58.300Z,82.40
2022-08-31T19:49:31.149Z,82.40
2022-08-31T19:52:03.712Z,82.40
2022-08-31T19:54:39.117Z,82.40
2022-08-31T19:57:13.174Z,82.30
2022-08-31T19:59:43.289Z,82.20
2022-08-31T20:02:14.356Z,82.10
2022-08-31T20:04:45.364Z,82.10
2022-08-31T20:07:14.704Z,81.90
2022-08-31T20:09:43.999Z,81.80
2022-08-31T20:12:14.621Z,81.60
2022-08-31T20:14:44.763Z,81.70
2022-08-31T20:17:14.921Z,81.60
2022-08-31T20:19:43.979Z,81.60
2022-08-31T20:22:13.589Z,81.50
2022-08-31T20:24:45.111Z,81.50
2022-08-31T20:27:18.519Z,81.40
2022-08-31T20:29:48.286Z,81.50
2022-08-31T20:32:17.570Z,81.40
2022-08-31T20:34:48.248Z,81.50
2022-08-31T20:37:17.553Z,81.60
2022-08-31T20:39:46.637Z,81.60
2022-08-31T20:42:17.298Z,81.70
2022-08-31T20:44:49.030Z,81.80
2022-08-31T20:47:35.533Z,81.80
2022-08-31T20:50:07.329Z,82.90
2022-08-31T20:52:36.647Z,81.90
2022-08-31T20:55:07.160Z,82.00
2022-08-31T20:57:40.983Z,82.20
2022-08-31T21:00:11.635Z,82.20
2022-08-31T21:02:40.980Z,82.30
2022-08-31T21:05:37.815Z,82.50
2022-08-31T21:08:02.627Z,82.60
2022-08-31T21:10:36.378Z,82.50
2022-08-31T21:13:11.778Z,82.50
2022-08-31T21:15:42.977Z,82.60
2022-08-31T21:18:16.670Z,82.70
2022-08-31T21:20:46.288Z,82.80
2022-08-31T21:23:15.441Z,82.80
2022-08-31T21:25:46.810Z,82.80
2022-08-31T21:28:18.343Z,83.00
2022-08-31T21:30:50.107Z,82.90
2022-08-31T21:33:19.873Z,82.80
2022-08-31T21:35:49.145Z,82.80
2022-08-31T21:38:18.353Z,82.90
2022-08-31T21:40:51.316Z,83.10
2022-08-31T21:43:22.086Z,83.20
2022-08-31T21:46:02.229Z,83.30
2022-08-31T21:48:32.786Z,83.60
2022-08-31T21:51:11.921Z,83.60
2022-08-31T21:53:41.721Z,83.80
2022-08-31T21:56:11.896Z,83.70
2022-08-31T21:58:42.428Z,83.80
2022-08-31T22:01:18.404Z,83.90
2022-08-31T22:03:48.554Z,83.90
2022-08-31T22:06:26.994Z,84.00
2022-08-31T22:09:00.614Z,84.10
2022-08-31T22:11:32.651Z,84.30
2022-08-31T22:14:03.600Z,84.40
2022-08-31T22:16:32.707Z,84.40
2022-08-31T22:19:02.698Z,84.30
2022-08-31T22:21:34.639Z,84.40
2022-08-31T22:24:06.623Z,84.40
2022-08-31T22:26:39.095Z,84.30
2022-08-31T22:29:12.072Z,84.30
2022-08-31T22:31:42.400Z,84.40
2022-08-31T22:34:12.361Z,84.40
2022-08-31T22:36:41.645Z,84.60
2022-08-31T22:39:13.245Z,84.50
2022-08-31T22:41:43.274Z,84.60
2022-08-31T22:44:16.573Z,84.60
2022-08-31T22:46:47.388Z,84.60
2022-08-31T22:49:16.957Z,84.60
2022-08-31T22:51:48.450Z,84.60
2022-08-31T22:54:19.793Z,84.60
2022-08-31T22:56:49.745Z,84.60
2022-08-31T22:59:27.344Z,84.60
2022-08-31T23:02:02.123Z,84.70
2022-08-31T23:04:33.439Z,84.60
2022-08-31T23:07:03.765Z,84.60
2022-08-31T23:09:34.297Z,84.70
2022-08-31T23:12:05.995Z,84.50
2022-08-31T23:14:37.627Z,84.60
2022-08-31T23:17:09.103Z,84.60
2022-08-31T23:19:41.258Z,84.70
2022-08-31T23:22:15.150Z,84.90
2022-08-31T23:24:47.094Z,84.90
2022-08-31T23:27:19.064Z,85.00
2022-08-31T23:29:51.783Z,84.90
2022-08-31T23:32:23.558Z,84.90
2022-08-31T23:34:52.711Z,85.80
2022-08-31T23:37:25.762Z,85.00
2022-08-31T23:39:56.041Z,85.00
2022-08-31T23:42:27.207Z,85.00
2022-08-31T23:44:58.027Z,85.00
2022-08-31T23:47:30.768Z,85.10
2022-08-31T23:50:04.784Z,85.10
2022-08-31T23:52:35.503Z,85.20
2022-08-31T23:55:06.367Z,85.20
2022-08-31T23:57:37.146Z,85.30
